Time;durP1;ratioP1;P1;durP2;ratioP2;P2;SDS_P1;SDS_P2;PMS_P1;PMS_P2;Temp;Humidity;BMP_temperature;BMP_pressure;BME280_temperature;BME280_humidity;BME280_pressure;Samples;Min_cycle;Max_cycle;Signal;HPM_P1;HPM_P2
2022/04/30 00:00:44;;;;;;;5.43;5.05;;;;;;;;;;5156318;27;20773;-54
2022/04/30 00:03:26;;;;;;;5.47;5.18;;;;;;;;;;5080838;28;20637;-58
2022/04/30 00:06:05;;;;;;;5.93;5.45;;;;;;;;;;5085416;27;21022;-56
2022/04/30 00:08:45;;;;;;;5.00;4.60;;;;;;;;;;5092107;27;20596;-57
2022/04/30 00:11:26;;;;;;;5.72;5.22;;;;;;;;;;5080789;28;21147;-55
2022/04/30 00:14:06;;;;;;;5.75;5.30;;;;;;;;;;5134552;27;20544;-55
2022/04/30 00:16:46;;;;;;;5.15;4.85;;;;;;;;;;5065305;28;20614;-55
2022/04/30 00:19:27;;;;;;;5.63;5.22;;;;;;;;;;5123086;27;20661;-56
2022/04/30 00:22:07;;;;;;;6.40;5.80;;;;;;;;;;5115195;27;20544;-57
2022/04/30 00:24:48;;;;;;;5.97;5.45;;;;;;;;;;5102027;27;20669;-56
2022/04/30 00:27:28;;;;;;;5.93;5.43;;;;;;;;;;5123783;27;20540;-56
2022/04/30 00:30:09;;;;;;;5.43;5.13;;;;;;;;;;5082170;28;21192;-55
2022/04/30 00:32:51;;;;;;;6.32;5.93;;;;;;;;;;5103283;27;20886;-58
2022/04/30 00:35:32;;;;;;;5.13;4.82;;;;;;;;;;5119171;27;20984;-56
2022/04/30 00:38:15;;;;;;;6.40;5.80;;;;;;;;;;5115401;27;20541;-56
2022/04/30 00:40:56;;;;;;;5.63;5.20;;;;;;;;;;5082245;27;20580;-55
2022/04/30 00:43:45;;;;;;;5.35;5.05;;;;;;;;;;5102942;27;20591;-57
2022/04/30 00:46:25;;;;;;;6.03;5.00;;;;;;;;;;5068078;28;20552;-58
2022/04/30 00:49:05;;;;;;;5.20;4.88;;;;;;;;;;5127021;27;20544;-57
2022/04/30 00:51:45;;;;;;;5.97;5.55;;;;;;;;;;5130040;27;20671;-58
2022/04/30 00:54:26;;;;;;;5.53;5.13;;;;;;;;;;5123045;27;20881;-56
2022/04/30 00:57:07;;;;;;;5.40;5.00;;;;;;;;;;5078696;28;21062;-57
2022/04/30 00:59:47;;;;;;;5.72;5.32;;;;;;;;;;5080601;27;20587;-57
2022/04/30 01:02:28;;;;;;;6.60;6.10;;;;;;;;;;5081183;27;21115;-57
2022/04/30 01:05:29;;;;;;;5.57;5.07;;;;;;;;;;5121584;27;20784;-57
2022/04/30 01:08:10;;;;;;;6.05;5.65;;;;;;;;;;5119166;27;20683;-56
2022/04/30 01:10:50;;;;;;;5.30;4.82;;;;;;;;;;5101387;27;20635;-55
2022/04/30 01:13:32;;;;;;;5.60;5.25;;;;;;;;;;5119011;27;20568;-56
2022/04/30 01:16:13;;;;;;;7.85;5.75;;;;;;;;;;5080325;28;20559;-56
2022/04/30 01:18:53;;;;;;;5.70;5.25;;;;;;;;;;5079009;28;20680;-56
2022/04/30 01:21:34;;;;;;;6.32;5.93;;;;;;;;;;5105755;27;20975;-56
2022/04/30 01:24:14;;;;;;;5.88;5.45;;;;;;;;;;5075725;28;20609;-55
2022/04/30 01:26:55;;;;;;;6.45;6.05;;;;;;;;;;5067545;27;20596;-56
2022/04/30 01:29:37;;;;;;;6.63;6.15;;;;;;;;;;5073691;27;21124;-55
2022/04/30 01:38:12;;;;;;;5.32;4.93;;;;;;;;;;5102775;27;20762;-56
2022/04/30 01:40:52;;;;;;;5.78;5.40;;;;;;;;;;5143267;27;20538;-56
2022/04/30 01:43:33;;;;;;;6.15;5.65;;;;;;;;;;5123623;27;20543;-57
2022/04/30 01:46:14;;;;;;;6.30;5.80;;;;;;;;;;5082339;27;20559;-55
2022/04/30 01:48:54;;;;;;;6.13;5.65;;;;;;;;;;5115319;27;21130;-57
2022/04/30 01:51:34;;;;;;;5.72;5.32;;;;;;;;;;5082774;27;21220;-57
2022/04/30 01:54:14;;;;;;;5.55;5.15;;;;;;;;;;5082809;28;20668;-56
2022/04/30 01:56:54;;;;;;;4.93;4.63;;;;;;;;;;5123202;27;20552;-55
2022/04/30 01:59:36;;;;;;;5.72;5.32;;;;;;;;;;5081802;27;20562;-56
2022/04/30 02:02:15;;;;;;;5.43;5.03;;;;;;;;;;5102794;27;20553;-58
2022/04/30 02:04:56;;;;;;;5.28;4.97;;;;;;;;;;5122873;27;20544;-57
2022/04/30 02:07:38;;;;;;;5.95;5.50;;;;;;;;;;5082620;28;20684;-56
2022/04/30 02:10:19;;;;;;;6.05;5.65;;;;;;;;;;5081675;27;20671;-56
2022/04/30 02:13:00;;;;;;;6.68;6.13;;;;;;;;;;5144262;27;21050;-56
2022/04/30 02:15:42;;;;;;;5.70;5.25;;;;;;;;;;5093517;27;20577;-56
2022/04/30 02:18:24;;;;;;;5.15;4.78;;;;;;;;;;5102682;27;21027;-56
2022/04/30 02:21:04;;;;;;;8.48;5.93;;;;;;;;;;5081030;27;20561;-55
2022/04/30 02:23:43;;;;;;;6.60;6.10;;;;;;;;;;5123118;27;21048;-56
2022/04/30 02:26:25;;;;;;;5.47;5.13;;;;;;;;;;5087504;27;21065;-56
2022/04/30 02:29:07;;;;;;;5.82;5.43;;;;;;;;;;5102983;27;21065;-57
2022/04/30 02:31:48;;;;;;;5.90;5.38;;;;;;;;;;5102969;27;20669;-55
2022/04/30 02:34:27;;;;;;;6.30;5.90;;;;;;;;;;5076851;28;20559;-57
2022/04/30 02:37:08;;;;;;;6.25;5.85;;;;;;;;;;5081444;27;20598;-57
2022/04/30 02:39:49;;;;;;;7.85;7.25;;;;;;;;;;5081802;27;20569;-56
2022/04/30 02:42:29;;;;;;;7.10;6.60;;;;;;;;;;5103470;27;20669;-57
2022/04/30 02:45:09;;;;;;;5.65;5.35;;;;;;;;;;5078759;28;20567;-57
2022/04/30 02:47:53;;;;;;;5.65;5.35;;;;;;;;;;5083146;27;20546;-56
2022/04/30 02:50:33;;;;;;;5.53;5.22;;;;;;;;;;5082401;28;21133;-56
2022/04/30 02:53:13;;;;;;;5.05;4.72;;;;;;;;;;5154712;27;20536;-56
2022/04/30 02:55:52;;;;;;;5.25;4.95;;;;;;;;;;5082885;27;20556;-58
2022/04/30 03:01:31;;;;;;;6.10;5.68;;;;;;;;;;5123321;27;20532;-56
2022/04/30 03:04:22;;;;;;;7.10;6.68;;;;;;;;;;5123605;27;20614;-56
2022/04/30 03:07:04;;;;;;;32.05;15.40;;;;;;;;;;5073799;27;21294;-57
2022/04/30 03:09:47;;;;;;;22.90;11.65;;;;;;;;;;5081195;27;20581;-57
2022/04/30 03:12:27;;;;;;;12.50;8.77;;;;;;;;;;5145580;27;20588;-55
2022/04/30 03:15:07;;;;;;;36.38;17.35;;;;;;;;;;5122342;27;20678;-56
2022/04/30 03:23:43;;;;;;;6.97;6.30;;;;;;;;;;5103545;27;20558;-56
2022/04/30 03:26:26;;;;;;;6.82;6.20;;;;;;;;;;5144314;27;20689;-57
2022/04/30 03:29:06;;;;;;;6.35;5.72;;;;;;;;;;5098025;27;20561;-57
2022/04/30 03:31:47;;;;;;;6.65;6.03;;;;;;;;;;5102562;27;20701;-56
2022/04/30 03:34:28;;;;;;;6.25;5.75;;;;;;;;;;5143798;27;20689;-58
2022/04/30 03:37:10;;;;;;;5.75;5.35;;;;;;;;;;5101085;27;20557;-56
2022/04/30 03:39:50;;;;;;;6.63;6.22;;;;;;;;;;5128977;27;20609;-56
2022/04/30 03:42:30;;;;;;;6.00;5.60;;;;;;;;;;5081490;27;20676;-56
2022/04/30 03:45:12;;;;;;;5.35;5.05;;;;;;;;;;5111621;27;20619;-56
2022/04/30 03:47:53;;;;;;;6.07;5.70;;;;;;;;;;5102546;27;20669;-57
2022/04/30 03:50:32;;;;;;;5.80;5.40;;;;;;;;;;5077163;27;20555;-58
2022/04/30 03:53:12;;;;;;;5.65;5.25;;;;;;;;;;5074534;27;21168;-57
2022/04/30 03:55:52;;;;;;;5.28;4.80;;;;;;;;;;5153452;27;20578;-56
2022/04/30 03:58:32;;;;;;;5.47;5.18;;;;;;;;;;5131159;27;20661;-56
2022/04/30 04:01:13;;;;;;;5.70;5.30;;;;;;;;;;5081861;27;20498;-56
2022/04/30 04:03:53;;;;;;;4.97;4.68;;;;;;;;;;5083543;28;20668;-56
2022/04/30 04:06:34;;;;;;;5.22;4.78;;;;;;;;;;5116103;27;20568;-57
2022/04/30 04:09:14;;;;;;;5.70;5.10;;;;;;;;;;5062042;28;21302;-57
2022/04/30 04:11:54;;;;;;;5.00;4.60;;;;;;;;;;5082114;27;21177;-58
2022/04/30 04:17:41;;;;;;;5.97;5.57;;;;;;;;;;5131961;27;20953;-57
2022/04/30 04:20:24;;;;;;;5.20;4.90;;;;;;;;;;5122079;27;20540;-57
2022/04/30 04:23:04;;;;;;;6.18;5.78;;;;;;;;;;5082041;28;20671;-57
2022/04/30 04:26:02;;;;;;;6.10;5.60;;;;;;;;;;5123478;27;20556;-57
2022/04/30 04:28:43;;;;;;;6.20;5.22;;;;;;;;;;5083558;27;20543;-57
2022/04/30 04:31:23;;;;;;;6.32;5.93;;;;;;;;;;5082149;27;21207;-57
2022/04/30 04:34:02;;;;;;;6.60;6.10;;;;;;;;;;5083398;28;20597;-57
2022/04/30 04:36:42;;;;;;;6.70;6.10;;;;;;;;;;5082924;28;20691;-57
2022/04/30 04:39:22;;;;;;;6.15;5.75;;;;;;;;;;5126365;27;20547;-57
2022/04/30 04:42:02;;;;;;;6.45;5.85;;;;;;;;;;5123681;27;21068;-57
2022/04/30 04:44:42;;;;;;;6.03;5.53;;;;;;;;;;5082641;27;21076;-57
2022/04/30 04:47:21;;;;;;;5.93;5.53;;;;;;;;;;5133178;27;20662;-55
2022/04/30 04:50:01;;;;;;;7.05;6.35;;;;;;;;;;5082883;28;20872;-56
2022/04/30 04:52:42;;;;;;;6.10;5.60;;;;;;;;;;5083257;27;20557;-57
2022/04/30 04:55:21;;;;;;;6.28;5.78;;;;;;;;;;5076719;27;20586;-57
2022/04/30 04:58:01;;;;;;;6.38;5.80;;;;;;;;;;5083515;28;20679;-58
2022/04/30 05:00:40;;;;;;;6.88;6.38;;;;;;;;;;5123091;27;20548;-57
2022/04/30 05:03:20;;;;;;;6.78;6.38;;;;;;;;;;5083136;27;20560;-57
2022/04/30 05:06:00;;;;;;;6.35;5.80;;;;;;;;;;5072044;28;20686;-57
2022/04/30 05:08:40;;;;;;;6.20;5.80;;;;;;;;;;5083173;27;20702;-57
2022/04/30 05:11:20;;;;;;;6.88;6.25;;;;;;;;;;5120782;27;20551;-57
2022/04/30 05:14:00;;;;;;;6.68;6.13;;;;;;;;;;5103385;27;20549;-57
2022/04/30 05:16:39;;;;;;;6.63;6.13;;;;;;;;;;5143607;27;20546;-57
2022/04/30 05:19:19;;;;;;;6.88;6.38;;;;;;;;;;5082720;28;20660;-57
2022/04/30 05:21:59;;;;;;;6.88;6.47;;;;;;;;;;5083197;28;21255;-57
2022/04/30 05:24:39;;;;;;;7.18;6.32;;;;;;;;;;5130763;27;20566;-57
2022/04/30 05:27:19;;;;;;;7.00;6.60;;;;;;;;;;5082571;28;20605;-57
2022/04/30 05:29:59;;;;;;;6.00;5.60;;;;;;;;;;5082259;27;20539;-57
2022/04/30 05:32:38;;;;;;;7.13;6.63;;;;;;;;;;5083640;27;20557;-57
2022/04/30 05:35:18;;;;;;;6.68;6.28;;;;;;;;;;5132045;27;21111;-57
2022/04/30 05:37:58;;;;;;;7.25;6.65;;;;;;;;;;5124495;27;20882;-57
2022/04/30 05:40:38;;;;;;;7.50;7.00;;;;;;;;;;5139100;27;20590;-57
2022/04/30 05:43:18;;;;;;;6.40;5.82;;;;;;;;;;5124069;27;20547;-56
2022/04/30 05:45:58;;;;;;;6.70;6.22;;;;;;;;;;5092563;27;20983;-56
2022/04/30 05:48:37;;;;;;;7.03;6.32;;;;;;;;;;5083443;28;21161;-56
2022/04/30 05:51:17;;;;;;;7.20;6.10;;;;;;;;;;5143906;27;21055;-56
2022/04/30 05:53:57;;;;;;;6.22;5.82;;;;;;;;;;5083276;27;21097;-56
2022/04/30 05:56:37;;;;;;;7.10;6.40;;;;;;;;;;5103394;27;20562;-56
2022/04/30 05:59:18;;;;;;;6.97;6.50;;;;;;;;;;5123068;27;20540;-57
2022/04/30 06:01:58;;;;;;;6.85;6.45;;;;;;;;;;5124014;27;20977;-56
2022/04/30 06:04:38;;;;;;;8.38;7.55;;;;;;;;;;5083206;27;20539;-54
2022/04/30 06:07:18;;;;;;;7.72;7.22;;;;;;;;;;5123624;27;20597;-56
2022/04/30 06:09:58;;;;;;;7.68;7.07;;;;;;;;;;5144074;27;20534;-56
2022/04/30 06:12:37;;;;;;;6.80;6.20;;;;;;;;;;5082966;27;20579;-56
2022/04/30 06:15:17;;;;;;;7.72;7.13;;;;;;;;;;5129725;27;20674;-56
2022/04/30 06:17:57;;;;;;;7.95;6.38;;;;;;;;;;5128375;27;20593;-56
2022/04/30 06:20:37;;;;;;;6.13;5.38;;;;;;;;;;5139030;27;20585;-56
2022/04/30 06:23:17;;;;;;;7.22;6.53;;;;;;;;;;5083208;27;20569;-57
2022/04/30 06:25:57;;;;;;;6.95;6.43;;;;;;;;;;5125427;27;20613;-56
2022/04/30 06:28:38;;;;;;;6.40;6.00;;;;;;;;;;5117938;27;20545;-56
2022/04/30 06:31:18;;;;;;;7.18;6.60;;;;;;;;;;5102207;27;20562;-57
2022/04/30 06:33:58;;;;;;;6.60;6.10;;;;;;;;;;5103614;27;20558;-56
2022/04/30 06:36:38;;;;;;;6.55;6.05;;;;;;;;;;5082771;28;21057;-56
2022/04/30 06:39:19;;;;;;;6.90;6.22;;;;;;;;;;5063576;27;20686;-56
2022/04/30 06:41:59;;;;;;;6.47;5.75;;;;;;;;;;5083052;28;20679;-56
2022/04/30 06:44:38;;;;;;;6.65;6.05;;;;;;;;;;5083064;28;20543;-56
2022/04/30 06:47:21;;;;;;;7.68;6.97;;;;;;;;;;5083267;27;21061;-56
2022/04/30 06:50:01;;;;;;;6.35;5.95;;;;;;;;;;5082544;28;20664;-57
2022/04/30 06:58:41;;;;;;;6.43;6.03;;;;;;;;;;5103361;27;21253;-57
2022/04/30 07:01:38;;;;;;;6.45;5.95;;;;;;;;;;5082162;28;20660;-56
2022/04/30 07:04:18;;;;;;;6.47;5.57;;;;;;;;;;5125170;27;20535;-56
2022/04/30 07:06:58;;;;;;;7.47;5.70;;;;;;;;;;5082150;28;20695;-56
2022/04/30 07:09:38;;;;;;;6.68;5.63;;;;;;;;;;5102771;27;21074;-56
2022/04/30 07:12:18;;;;;;;6.13;5.63;;;;;;;;;;5083043;27;21088;-56
2022/04/30 07:14:57;;;;;;;6.28;5.68;;;;;;;;;;5146608;27;20562;-57
2022/04/30 07:17:38;;;;;;;7.18;6.45;;;;;;;;;;5123975;27;20540;-56
2022/04/30 07:20:19;;;;;;;5.90;5.40;;;;;;;;;;5124239;27;21196;-57
2022/04/30 07:22:58;;;;;;;7.15;5.57;;;;;;;;;;5103774;27;20599;-57
2022/04/30 07:25:38;;;;;;;7.63;6.05;;;;;;;;;;5074238;28;20690;-57
2022/04/30 07:28:18;;;;;;;5.95;5.53;;;;;;;;;;5083423;28;20675;-57
2022/04/30 07:30:58;;;;;;;5.18;4.78;;;;;;;;;;5082389;28;21114;-56
2022/04/30 07:33:38;;;;;;;5.70;5.30;;;;;;;;;;5083090;27;21036;-56
2022/04/30 07:36:18;;;;;;;6.38;5.78;;;;;;;;;;5065445;27;21135;-57
2022/04/30 07:38:57;;;;;;;5.68;5.28;;;;;;;;;;5081594;27;20573;-57
2022/04/30 07:41:37;;;;;;;5.45;4.95;;;;;;;;;;5123731;27;20629;-57
2022/04/30 07:44:17;;;;;;;5.45;4.97;;;;;;;;;;5082277;27;20583;-57
2022/04/30 07:46:57;;;;;;;8.80;8.00;;;;;;;;;;5123554;27;21206;-57
2022/04/30 07:49:37;;;;;;;5.53;5.13;;;;;;;;;;5080547;27;21087;-57
2022/04/30 07:52:17;;;;;;;6.22;5.60;;;;;;;;;;5116203;27;20607;-57
2022/04/30 07:54:56;;;;;;;5.57;5.18;;;;;;;;;;5102011;27;20602;-57
2022/04/30 07:57:36;;;;;;;5.45;5.07;;;;;;;;;;5081805;28;20708;-57
2022/04/30 08:00:17;;;;;;;5.75;5.25;;;;;;;;;;5100415;27;20600;-57
2022/04/30 08:02:57;;;;;;;6.97;5.60;;;;;;;;;;5129878;27;20593;-57
2022/04/30 08:05:37;;;;;;;5.60;5.10;;;;;;;;;;5078432;28;20688;-57
2022/04/30 08:08:17;;;;;;;6.00;5.40;;;;;;;;;;5134943;27;20904;-57
2022/04/30 08:10:57;;;;;;;4.82;4.38;;;;;;;;;;5081301;27;21079;-57
2022/04/30 08:13:37;;;;;;;5.63;4.90;;;;;;;;;;5082485;27;20536;-57
2022/04/30 08:16:17;;;;;;;5.05;4.75;;;;;;;;;;5141404;27;20600;-57
2022/04/30 08:18:58;;;;;;;5.18;4.68;;;;;;;;;;5101864;27;20646;-57
2022/04/30 08:21:38;;;;;;;5.35;4.93;;;;;;;;;;5100826;27;20553;-57
2022/04/30 08:24:18;;;;;;;6.57;5.90;;;;;;;;;;5082361;28;20551;-57
2022/04/30 08:26:59;;;;;;;5.75;5.35;;;;;;;;;;5082741;27;20683;-57
2022/04/30 08:29:39;;;;;;;5.47;4.97;;;;;;;;;;5143670;27;20595;-55
2022/04/30 08:32:19;;;;;;;5.30;4.80;;;;;;;;;;5083548;28;20556;-55
2022/04/30 08:35:01;;;;;;;5.22;4.72;;;;;;;;;;5123363;27;21057;-57
2022/04/30 08:37:42;;;;;;;5.47;5.07;;;;;;;;;;5100253;27;20554;-57
2022/04/30 08:40:22;;;;;;;5.25;4.75;;;;;;;;;;5077052;28;20850;-57
2022/04/30 08:43:08;;;;;;;6.30;5.53;;;;;;;;;;5077474;27;20588;-57
2022/04/30 08:45:48;;;;;;;5.38;4.97;;;;;;;;;;5076200;27;20588;-57
2022/04/30 08:48:28;;;;;;;5.95;5.40;;;;;;;;;;5081803;28;20707;-57
2022/04/30 08:51:09;;;;;;;5.45;5.10;;;;;;;;;;5096954;27;20559;-56
2022/04/30 08:53:49;;;;;;;5.57;5.15;;;;;;;;;;5082084;27;20556;-57
2022/04/30 08:56:28;;;;;;;6.43;5.82;;;;;;;;;;5092164;27;21081;-57
2022/04/30 08:59:09;;;;;;;6.22;5.70;;;;;;;;;;5112689;27;21072;-57
2022/04/30 09:01:48;;;;;;;6.07;5.45;;;;;;;;;;5080470;28;20849;-57
2022/04/30 09:04:28;;;;;;;5.72;5.22;;;;;;;;;;5081451;27;20875;-57
2022/04/30 09:07:13;;;;;;;5.80;5.40;;;;;;;;;;5081034;27;20561;-57
2022/04/30 09:09:56;;;;;;;5.78;5.05;;;;;;;;;;5122025;27;20959;-57
2022/04/30 09:12:42;;;;;;;6.05;5.45;;;;;;;;;;5064258;27;21105;-57
2022/04/30 09:15:22;;;;;;;4.80;4.43;;;;;;;;;;5076766;28;20615;-57
2022/04/30 09:18:02;;;;;;;5.78;5.25;;;;;;;;;;5139210;27;20560;-56
2022/04/30 09:20:46;;;;;;;4.95;4.65;;;;;;;;;;5081894;27;20576;-57
2022/04/30 09:23:27;;;;;;;5.38;4.25;;;;;;;;;;5082178;28;20739;-55
2022/04/30 09:26:07;;;;;;;6.57;5.07;;;;;;;;;;5068998;28;20693;-57
2022/04/30 09:28:48;;;;;;;4.88;4.57;;;;;;;;;;5102357;27;21042;-57
2022/04/30 09:31:27;;;;;;;4.88;4.47;;;;;;;;;;5132181;27;20707;-57
2022/04/30 09:37:41;;;;;;;4.30;3.97;;;;;;;;;;5081632;27;20553;-56
2022/04/30 09:40:05;;;;;;;4.32;4.03;;;;;;;;;;5147710;27;20551;-57
2022/04/30 09:42:47;;;;;;;5.05;4.65;;;;;;;;;;5100757;27;20553;-57
2022/04/30 09:45:29;;;;;;;4.85;4.40;;;;;;;;;;5111378;27;20577;-57
2022/04/30 09:54:03;;;;;;;4.30;4.00;;;;;;;;;;5151523;27;20537;-57
2022/04/30 09:56:45;;;;;;;4.13;3.83;;;;;;;;;;5082107;27;20555;-57
2022/04/30 09:59:27;;;;;;;4.15;3.75;;;;;;;;;;5080893;27;20548;-57
2022/04/30 10:02:08;;;;;;;4.93;3.60;;;;;;;;;;5102116;27;21128;-57
2022/04/30 10:04:49;;;;;;;4.35;3.95;;;;;;;;;;5122101;27;20927;-56
2022/04/30 10:07:29;;;;;;;4.47;4.15;;;;;;;;;;5125447;27;21201;-57
2022/04/30 10:10:15;;;;;;;4.30;3.90;;;;;;;;;;5104494;27;20540;-56
2022/04/30 10:12:58;;;;;;;3.78;3.45;;;;;;;;;;5082725;27;20551;-57
2022/04/30 10:15:44;;;;;;;3.65;3.35;;;;;;;;;;5074808;27;20560;-57
2022/04/30 10:18:33;;;;;;;3.90;3.55;;;;;;;;;;5118112;27;20925;-57
2022/04/30 10:21:19;;;;;;;4.43;4.00;;;;;;;;;;5075210;27;20565;-57
2022/04/30 10:24:06;;;;;;;4.05;3.72;;;;;;;;;;5111056;27;20681;-57
2022/04/30 10:27:00;;;;;;;3.65;3.35;;;;;;;;;;5084181;27;20572;-57
2022/04/30 10:29:51;;;;;;;4.72;3.65;;;;;;;;;;5078229;27;20995;-57
2022/04/30 10:32:37;;;;;;;6.55;3.25;;;;;;;;;;5101245;27;20962;-55
2022/04/30 10:35:17;;;;;;;4.78;3.60;;;;;;;;;;5134069;27;20602;-57
2022/04/30 10:38:06;;;;;;;4.57;4.10;;;;;;;;;;5068808;27;20568;-56
2022/04/30 10:40:48;;;;;;;4.00;3.70;;;;;;;;;;5098589;27;21129;-57
2022/04/30 10:43:31;;;;;;;9.40;4.43;;;;;;;;;;5079020;27;20597;-57
2022/04/30 10:46:21;;;;;;;3.80;3.50;;;;;;;;;;5101648;27;21043;-57
2022/04/30 10:49:06;;;;;;;3.50;3.20;;;;;;;;;;5102714;27;20602;-57
2022/04/30 10:51:46;;;;;;;3.40;3.20;;;;;;;;;;5083418;27;20577;-57
2022/04/30 10:54:26;;;;;;;3.97;3.60;;;;;;;;;;5111614;27;20689;-57
2022/04/30 10:57:06;;;;;;;3.67;3.15;;;;;;;;;;5082346;28;21267;-57
2022/04/30 10:59:56;;;;;;;4.35;2.72;;;;;;;;;;5156879;27;20552;-57
2022/04/30 11:02:37;;;;;;;4.05;3.63;;;;;;;;;;5083739;28;21404;-57
2022/04/30 11:05:23;;;;;;;4.03;3.42;;;;;;;;;;5101217;22;20531;-56
2022/04/30 11:08:04;;;;;;;3.80;3.50;;;;;;;;;;5145056;27;20541;-55
2022/04/30 11:10:51;;;;;;;3.85;3.38;;;;;;;;;;5082600;28;20596;-56
2022/04/30 11:13:32;;;;;;;3.75;3.42;;;;;;;;;;5083120;28;21029;-56
2022/04/30 11:16:15;;;;;;;3.83;3.60;;;;;;;;;;5072283;28;20666;-56
2022/04/30 11:18:59;;;;;;;4.25;3.95;;;;;;;;;;5082386;28;21107;-56
2022/04/30 11:21:40;;;;;;;3.80;3.60;;;;;;;;;;5082551;28;20597;-55
2022/04/30 11:24:28;;;;;;;3.53;3.13;;;;;;;;;;5082702;27;21679;-55
2022/04/30 11:27:10;;;;;;;2.63;2.35;;;;;;;;;;5123962;27;20548;-57
2022/04/30 11:29:52;;;;;;;3.22;3.00;;;;;;;;;;5082814;28;20547;-56
2022/04/30 11:32:31;;;;;;;10.32;3.80;;;;;;;;;;5103946;27;21377;-57
2022/04/30 11:35:11;;;;;;;2.95;2.67;;;;;;;;;;5111619;27;20543;-56
2022/04/30 11:37:51;;;;;;;3.20;2.72;;;;;;;;;;5129588;27;20544;-57
2022/04/30 11:40:32;;;;;;;3.25;3.03;;;;;;;;;;5119581;27;20580;-56
2022/04/30 11:43:12;;;;;;;3.13;2.85;;;;;;;;;;5144809;27;20543;-57
2022/04/30 11:45:59;;;;;;;4.70;2.55;;;;;;;;;;5078571;28;20605;-56
2022/04/30 11:48:40;;;;;;;3.30;3.10;;;;;;;;;;5103015;27;20542;-57
2022/04/30 11:51:20;;;;;;;3.78;2.50;;;;;;;;;;5099853;27;21318;-56
2022/04/30 11:54:00;;;;;;;3.45;2.47;;;;;;;;;;5076796;28;21093;-57
2022/04/30 11:56:41;;;;;;;3.15;2.95;;;;;;;;;;5128793;27;20574;-57
2022/04/30 11:59:30;;;;;;;3.58;2.75;;;;;;;;;;5127349;27;20544;-56
2022/04/30 12:02:11;;;;;;;5.40;2.92;;;;;;;;;;5145278;27;20543;-57
2022/04/30 12:04:52;;;;;;;3.20;2.78;;;;;;;;;;5072671;27;21149;-56
2022/04/30 12:07:38;;;;;;;4.57;2.67;;;;;;;;;;5102488;27;21313;-57
2022/04/30 12:10:19;;;;;;;3.38;2.35;;;;;;;;;;5080833;27;20569;-57
2022/04/30 12:12:59;;;;;;;3.60;2.28;;;;;;;;;;5083235;28;20612;-56
2022/04/30 12:15:41;;;;;;;2.83;2.63;;;;;;;;;;5122989;27;20560;-56
2022/04/30 12:27:23;;;;;;;3.70;2.38;;;;;;;;;;5120376;27;20556;-57
2022/04/30 12:30:03;;;;;;;2.08;1.98;;;;;;;;;;5101844;27;20541;-57
2022/04/30 12:32:51;;;;;;;4.32;2.40;;;;;;;;;;5082441;27;20543;-56
2022/04/30 12:35:32;;;;;;;2.30;2.17;;;;;;;;;;5071243;27;21015;-56
2022/04/30 12:38:12;;;;;;;2.17;2.03;;;;;;;;;;5100257;27;20607;-57
2022/04/30 12:40:55;;;;;;;2.30;2.10;;;;;;;;;;5124456;27;20683;-57
2022/04/30 12:43:37;;;;;;;2.20;2.10;;;;;;;;;;5103127;27;20546;-57
2022/04/30 12:46:21;;;;;;;4.60;2.03;;;;;;;;;;5103230;27;20567;-57
2022/04/30 12:49:02;;;;;;;2.53;2.33;;;;;;;;;;5103320;27;20545;-57
2022/04/30 12:51:42;;;;;;;3.42;2.08;;;;;;;;;;5083297;28;20683;-57
2022/04/30 12:54:23;;;;;;;2.10;2.00;;;;;;;;;;5102898;27;20603;-57
2022/04/30 12:57:07;;;;;;;2.95;2.67;;;;;;;;;;5144326;27;20546;-57
2022/04/30 12:59:46;;;;;;;2.90;2.70;;;;;;;;;;5102743;27;20541;-57
2022/04/30 13:02:28;;;;;;;2.22;2.13;;;;;;;;;;5124622;27;20663;-57
2022/04/30 13:05:08;;;;;;;2.42;2.25;;;;;;;;;;5144620;27;20542;-57
2022/04/30 13:07:49;;;;;;;2.55;2.22;;;;;;;;;;5144835;27;20542;-57
2022/04/30 13:13:31;;;;;;;4.72;2.20;;;;;;;;;;5083107;28;21224;-57
2022/04/30 13:16:12;;;;;;;3.10;2.53;;;;;;;;;;5103085;27;20554;-57
2022/04/30 13:18:52;;;;;;;2.33;2.13;;;;;;;;;;5082530;28;21171;-57
2022/04/30 13:21:33;;;;;;;3.63;2.60;;;;;;;;;;5130726;27;20675;-57
2022/04/30 13:24:14;;;;;;;2.15;1.95;;;;;;;;;;5102569;27;20542;-57
2022/04/30 13:26:56;;;;;;;1.80;1.70;;;;;;;;;;5123227;27;20552;-57
2022/04/30 13:29:36;;;;;;;4.93;2.22;;;;;;;;;;5078280;28;20604;-58
2022/04/30 13:32:16;;;;;;;2.58;2.38;;;;;;;;;;5154885;27;20542;-57
2022/04/30 13:34:56;;;;;;;2.65;2.20;;;;;;;;;;5078267;27;20616;-58
2022/04/30 13:37:40;;;;;;;2.50;2.30;;;;;;;;;;5081466;28;20601;-57
2022/04/30 13:40:20;;;;;;;2.60;2.10;;;;;;;;;;5101490;27;20546;-57
2022/04/30 13:43:00;;;;;;;3.15;2.10;;;;;;;;;;5083523;28;20612;-55
2022/04/30 13:45:40;;;;;;;2.40;2.20;;;;;;;;;;5145178;27;20569;-57
2022/04/30 13:48:20;;;;;;;2.03;1.92;;;;;;;;;;5081348;27;20550;-55
2022/04/30 13:51:01;;;;;;;3.35;2.00;;;;;;;;;;5134004;27;20552;-57
2022/04/30 13:53:41;;;;;;;3.55;2.40;;;;;;;;;;5113624;27;20546;-57
2022/04/30 13:56:21;;;;;;;2.13;1.90;;;;;;;;;;5070351;28;20564;-57
2022/04/30 13:59:01;;;;;;;3.05;1.85;;;;;;;;;;5083119;28;20604;-56
2022/04/30 14:01:40;;;;;;;4.80;2.03;;;;;;;;;;5081290;28;20691;-57
2022/04/30 14:04:20;;;;;;;2.78;1.83;;;;;;;;;;5074243;28;21193;-58
2022/04/30 14:07:00;;;;;;;2.25;2.00;;;;;;;;;;5094639;27;20565;-56
2022/04/30 14:09:40;;;;;;;1.88;1.77;;;;;;;;;;5136899;27;20562;-57
2022/04/30 14:12:20;;;;;;;2.35;2.25;;;;;;;;;;5118405;27;20637;-57
2022/04/30 14:14:59;;;;;;;2.30;2.13;;;;;;;;;;5078622;28;20700;-56
2022/04/30 14:20:38;;;;;;;6.32;2.30;;;;;;;;;;5110482;27;20560;-57
2022/04/30 14:23:18;;;;;;;2.80;2.15;;;;;;;;;;5096428;27;20549;-57
2022/04/30 14:25:58;;;;;;;2.63;2.17;;;;;;;;;;5109222;27;20615;-56
2022/04/30 14:28:39;;;;;;;2.10;1.70;;;;;;;;;;5069145;27;20563;-56
2022/04/30 14:31:20;;;;;;;2.28;1.80;;;;;;;;;;5143147;27;20542;-57
2022/04/30 14:34:01;;;;;;;2.13;2.03;;;;;;;;;;5115538;27;20545;-57
2022/04/30 14:36:40;;;;;;;2.05;1.60;;;;;;;;;;5101886;27;20557;-57
2022/04/30 14:39:20;;;;;;;2.10;1.98;;;;;;;;;;5142825;27;20538;-57
2022/04/30 14:42:00;;;;;;;1.75;1.63;;;;;;;;;;5083243;27;20680;-56
2022/04/30 14:44:42;;;;;;;5.20;1.80;;;;;;;;;;5083266;27;20690;-56
2022/04/30 14:47:21;;;;;;;5.13;1.90;;;;;;;;;;5103262;27;20553;-56
2022/04/30 14:50:01;;;;;;;2.15;1.95;;;;;;;;;;5102687;27;20603;-56
2022/04/30 14:52:41;;;;;;;2.08;1.83;;;;;;;;;;5138008;27;20962;-56
2022/04/30 14:55:21;;;;;;;3.97;2.50;;;;;;;;;;5134008;27;20596;-56
2022/04/30 14:58:01;;;;;;;3.25;2.00;;;;;;;;;;5102274;27;20545;-58
2022/04/30 15:00:42;;;;;;;4.63;2.00;;;;;;;;;;5123479;27;20544;-57
2022/04/30 15:03:22;;;;;;;2.15;2.03;;;;;;;;;;5141889;27;20945;-57
2022/04/30 15:06:02;;;;;;;2.05;1.92;;;;;;;;;;5103538;27;20615;-57
2022/04/30 15:08:42;;;;;;;2.75;1.95;;;;;;;;;;5138983;27;20544;-57
2022/04/30 15:11:21;;;;;;;4.53;1.90;;;;;;;;;;5123255;27;20539;-57
2022/04/30 15:14:01;;;;;;;1.92;1.83;;;;;;;;;;5103587;27;20568;-57
2022/04/30 15:16:41;;;;;;;3.00;1.80;;;;;;;;;;5082805;27;20980;-57
2022/04/30 15:19:21;;;;;;;2.53;2.33;;;;;;;;;;5071060;28;20605;-57
2022/04/30 15:22:01;;;;;;;2.83;2.00;;;;;;;;;;5140895;27;20599;-56
2022/04/30 15:24:41;;;;;;;2.10;1.92;;;;;;;;;;5074274;27;20562;-56
2022/04/30 15:27:22;;;;;;;2.83;2.08;;;;;;;;;;5062958;27;20846;-56
2022/04/30 15:30:02;;;;;;;2.08;1.90;;;;;;;;;;5130512;27;20550;-57
2022/04/30 15:32:42;;;;;;;3.10;2.13;;;;;;;;;;5083272;28;20617;-56
2022/04/30 15:35:22;;;;;;;4.88;3.63;;;;;;;;;;5142559;27;20558;-57
2022/04/30 15:38:01;;;;;;;2.42;2.22;;;;;;;;;;5122981;27;20876;-56
2022/04/30 15:40:44;;;;;;;2.22;2.00;;;;;;;;;;5102874;27;20573;-57
2022/04/30 15:43:24;;;;;;;2.83;2.40;;;;;;;;;;5082995;28;20556;-57
2022/04/30 15:46:04;;;;;;;2.30;2.10;;;;;;;;;;5122681;27;20558;-57
2022/04/30 15:51:43;;;;;;;2.60;1.90;;;;;;;;;;5102636;27;20545;-57
2022/04/30 15:54:23;;;;;;;2.95;2.22;;;;;;;;;;5082786;27;20591;-56
2022/04/30 15:57:03;;;;;;;2.38;2.13;;;;;;;;;;5101074;27;20611;-58
2022/04/30 15:59:44;;;;;;;2.35;2.15;;;;;;;;;;5115917;27;20548;-57
2022/04/30 16:02:24;;;;;;;3.08;2.30;;;;;;;;;;5134185;27;20799;-57
2022/04/30 16:05:04;;;;;;;3.17;2.40;;;;;;;;;;5126296;27;20540;-57
2022/04/30 16:07:43;;;;;;;2.50;2.28;;;;;;;;;;5138927;27;20819;-57
2022/04/30 16:10:25;;;;;;;3.47;2.20;;;;;;;;;;5123323;27;20560;-57
2022/04/30 16:13:05;;;;;;;2.70;2.50;;;;;;;;;;5073188;27;20574;-56
2022/04/30 16:15:45;;;;;;;2.20;2.10;;;;;;;;;;5091050;27;20613;-57
2022/04/30 16:18:24;;;;;;;2.67;2.45;;;;;;;;;;5100134;27;20578;-56
2022/04/30 16:21:05;;;;;;;3.80;2.22;;;;;;;;;;5113771;27;20537;-58
2022/04/30 16:23:44;;;;;;;2.78;2.47;;;;;;;;;;5081952;28;20691;-57
2022/04/30 16:26:24;;;;;;;1.98;1.88;;;;;;;;;;5082224;27;20551;-57
2022/04/30 16:29:09;;;;;;;2.20;2.00;;;;;;;;;;5082757;27;20572;-57
2022/04/30 16:31:48;;;;;;;2.72;2.17;;;;;;;;;;5103606;27;20575;-57
2022/04/30 16:34:28;;;;;;;3.88;2.80;;;;;;;;;;5115245;27;21065;-57
2022/04/30 16:37:08;;;;;;;16.45;9.98;;;;;;;;;;5102130;27;20693;-57
2022/04/30 16:39:48;;;;;;;15.73;10.30;;;;;;;;;;5128838;27;20536;-57
2022/04/30 16:42:28;;;;;;;4.32;3.92;;;;;;;;;;5146007;27;20558;-57
2022/04/30 16:45:08;;;;;;;8.43;5.93;;;;;;;;;;5144148;27;20674;-57
2022/04/30 16:47:53;;;;;;;3.50;2.63;;;;;;;;;;5114999;27;20536;-57
2022/04/30 16:50:33;;;;;;;4.15;3.58;;;;;;;;;;5143912;27;20534;-56
2022/04/30 16:53:13;;;;;;;3.85;2.72;;;;;;;;;;5144516;27;20542;-56
2022/04/30 16:58:51;;;;;;;2.60;2.40;;;;;;;;;;5083283;27;21087;-57